Cheikh El Mokrani — C6WD5 — position and weather

sailwx.info

Track history (hours):
 
Tides and Currents Weather Stations Pressure Air Temp Water Temp Dewpoint Dewpoint Depression Visibility Wind Speed Wind Dir Waves Ship Positions

Cheikh El Mokrani

Last reported at 2017-Feb-25 10:28 UTC. Time now 2017-Feb-26 23:53 UTC.
Position N 40°36' E 003°32'.

Length 220 m; draft 8.2 m.

Type: Ship (hazmat cat D). MMSI: 309979000.

Date/timePositionNaut miles runAvg speedWind from/ knotsBaromVisibWave heightAir tempDewpointWater temp
2017-Feb-25 10:28N 40°36' E 003°32'1415.7
2017-Feb-25 09:33N 40°44' E 003°16'1615.8
2017-Feb-25 08:33N 40°53' E 002°59'1515.1
2017-Feb-25 07:33N 41°01' E 002°42'1615.7
2017-Feb-25 06:33N 41°10' E 002°24'1313.2
2017-Feb-25 05:33N 41°18' E 002°10'2 0.1
2017-Feb-24 08:11N 41°17' E 002°12'912.3
2017-Feb-24 07:28N 41°09' E 002°07'1415.5
2017-Feb-24 06:33N 40°56' E 001°60'1615.5
2017-Feb-24 05:33N 40°41' E 001°52'1615.7
2017-Feb-24 04:33N 40°27' E 001°45'1616.0
2017-Feb-24 03:33N 40°12' E 001°37'1615.8
2017-Feb-24 02:33N 39°57' E 001°29'1615.8
2017-Feb-24 01:34N 39°43' E 001°22'1616.2
2017-Feb-24 00:33N 39°27' E 001°14'1816.7
2017-Feb-23 23:29N 39°11' E 001°05'2117.0
2017-Feb-23 22:15N 38°51' E 000°55'  
2017-Feb-21 13:33N 35°57' W 005°02'1010.0
2017-Feb-21 12:33N 35°58' W 005°15'1010.1
2017-Feb-21 11:33N 35°57' W 005°27'1010.4
2017-Feb-21 10:33N 35°56' W 005°40'4 0.1
2017-Feb-19 12:18N 35°58' W 005°44'1013.2
2017-Feb-19 11:34N 35°59' W 005°32'1414.3
2017-Feb-19 10:33N 36°03' W 005°15'1615.6
2017-Feb-19 09:33N 36°05' W 004°56'  
2017-Feb-16 01:33N 35°56' W 005°01'1414.0
2017-Feb-16 00:33N 35°58' W 005°18'2914.5
2017-Feb-15 22:33N 35°54' W 005°53'  
Track history (hours):
 
Tides and Currents Weather Stations Pressure Air Temp Water Temp Dewpoint Dewpoint Depression Visibility Wind Speed Wind Dir Waves Ship Positions

Cheikh El Mokrani

Last reported at 2017-Feb-25 10:28 UTC. Time now 2017-Feb-26 23:53 UTC.
Position N 40°36' E 003°32'.

Length 220 m; draft 8.2 m.

Type: Ship (hazmat cat D). MMSI: 309979000.

Date/timePositionNaut miles runAvg speedWind from/ knotsBaromVisibWave heightAir tempDewpointWater temp
2017-Feb-25 10:28N 40°36' E 003°32'1415.7
2017-Feb-25 09:33N 40°44' E 003°16'1615.8
2017-Feb-25 08:33N 40°53' E 002°59'1515.1
2017-Feb-25 07:33N 41°01' E 002°42'1615.7
2017-Feb-25 06:33N 41°10' E 002°24'1313.2
2017-Feb-25 05:33N 41°18' E 002°10'2 0.1
2017-Feb-24 08:11N 41°17' E 002°12'912.3
2017-Feb-24 07:28N 41°09' E 002°07'1415.5
2017-Feb-24 06:33N 40°56' E 001°60'1615.5
2017-Feb-24 05:33N 40°41' E 001°52'1615.7
2017-Feb-24 04:33N 40°27' E 001°45'1616.0
2017-Feb-24 03:33N 40°12' E 001°37'1615.8
2017-Feb-24 02:33N 39°57' E 001°29'1615.8
2017-Feb-24 01:34N 39°43' E 001°22'1616.2
2017-Feb-24 00:33N 39°27' E 001°14'1816.7
2017-Feb-23 23:29N 39°11' E 001°05'2117.0
2017-Feb-23 22:15N 38°51' E 000°55'  
2017-Feb-21 13:33N 35°57' W 005°02'1010.0
2017-Feb-21 12:33N 35°58' W 005°15'1010.1
2017-Feb-21 11:33N 35°57' W 005°27'1010.4
2017-Feb-21 10:33N 35°56' W 005°40'4 0.1
2017-Feb-19 12:18N 35°58' W 005°44'1013.2
2017-Feb-19 11:34N 35°59' W 005°32'1414.3
2017-Feb-19 10:33N 36°03' W 005°15'1615.6
2017-Feb-19 09:33N 36°05' W 004°56'  
2017-Feb-16 01:33N 35°56' W 005°01'1414.0
2017-Feb-16 00:33N 35°58' W 005°18'2914.5
2017-Feb-15 22:33N 35°54' W 005°53'  

Dump ship's entire track history